»·PEaware :: N333ZS KINS-KBVU

N333ZS :: KINS-KBVU

FLIGHT INFORMATION

Flight Status: Arrived
Operator: Privately registered:
United States
More flights under this callsign
Pilot: Judd H. (29974)
Aircraft: CESSNA 182 SKYLANE
(C182)
More flights by this aircraft type
Origin: KINS Indian Springs AF Aux
United States
Destination: KBVU Boulder City
United States
More flights between these airports :: More routes between these airports
Route:
File this flight plan on PilotEdge
Remarks:
Altitude:
(Current/Filed)
4,000ft
Speed:
(Current/Filed)
120kts
Departed: 19-Sep-20 12:39 AM
Arrived: 19-Sep-20 01:32 AM
Distance/Time
Traveled:
55nm/0:53
Distance/Time
To Go:
Arrived

Flight Plot

Page will automatically refresh every two minutes.

Flight plan parsing failed; only flown route is shown


Map Options




Map Legend


Flown Route
Filed Route
Departure Airport
Arrival Airport
Navaid (VOR, NDB)
Fix

Horizontal Profiles

Position Reports

Time Latitude Longitude Heading Altitude Ground
Speed
19-Sep-20 00:32 36.581703 -115.679364 270 3137ft 0kts
19-Sep-20 00:33 36.581703 -115.679368 270 3137ft 1kts
19-Sep-20 00:34 36.581990 -115.671757 114 3137ft 25kts
19-Sep-20 00:35 36.582054 -115.664866 336 3137ft 0kts
19-Sep-20 00:36 36.582055 -115.664867 336 3137ft 0kts
19-Sep-20 00:37 36.583457 -115.665558 278 3137ft 0kts
19-Sep-20 00:38 36.583574 -115.686535 261 3517ft 92kts
19-Sep-20 00:39 36.567853 -115.680992 101 4388ft 120kts
19-Sep-20 00:40 36.566464 -115.635578 95 4725ft 150kts
19-Sep-20 00:41 36.552831 -115.586686 128 4331ft 151kts
19-Sep-20 00:42 36.528314 -115.544284 135 4043ft 145kts
19-Sep-20 00:43 36.503913 -115.511307 141 4518ft 121kts
19-Sep-20 00:44 36.481914 -115.480540 139 5012ft 116kts
19-Sep-20 00:45 36.476259 -115.472188 137 5146ft 115kts
19-Sep-20 00:46 36.462368 -115.451542 137 5403ft 119kts
19-Sep-20 00:47 36.435675 -115.424843 154 5395ft 128kts
19-Sep-20 00:48 36.405413 -115.400537 155 5394ft 130kts
19-Sep-20 00:49 36.374789 -115.375747 154 5391ft 131kts
19-Sep-20 00:50 36.346716 -115.344720 140 5385ft 139kts
19-Sep-20 00:51 36.320372 -115.309052 140 5374ft 141kts
19-Sep-20 00:52 36.293301 -115.273292 144 5179ft 146kts
19-Sep-20 00:53 36.261500 -115.240177 153 4695ft 149kts
19-Sep-20 00:54 36.224402 -115.217778 166 4187ft 149kts
19-Sep-20 00:55 36.189013 -115.228907 229 3976ft 126kts
19-Sep-20 00:56 36.164091 -115.258590 227 3976ft 123kts
19-Sep-20 00:57 36.138310 -115.286407 211 3990ft 124kts
19-Sep-20 00:58 36.106905 -115.299825 173 4109ft 130kts
19-Sep-20 00:59 36.071096 -115.289280 172 4101ft 133kts
19-Sep-20 01:00 36.035376 -115.276452 143 4083ft 141kts
19-Sep-20 01:01 36.011602 -115.237089 130 4101ft 143kts
19-Sep-20 01:02 35.988035 -115.197331 131 4100ft 143kts
19-Sep-20 01:03 35.963631 -115.160922 149 4350ft 126kts
19-Sep-20 01:04 35.935998 -115.135002 155 4695ft 122kts
19-Sep-20 01:05 35.927240 -115.152643 318 5401ft 102kts
19-Sep-20 01:06 35.958164 -115.145693 17 6129ft 122kts
19-Sep-20 01:07 35.980629 -115.113052 51 6805ft 128kts
19-Sep-20 01:08 35.986497 -115.078528 157 7520ft 94kts
19-Sep-20 01:09 35.966755 -115.048118 157 7603ft 123kts
19-Sep-20 01:10 35.943864 -115.014174 117 7601ft 141kts
19-Sep-20 01:11 35.932176 -114.967540 113 7600ft 142kts
19-Sep-20 01:12 35.920818 -114.920959 113 7600ft 140kts
19-Sep-20 01:13 35.909562 -114.875021 113 7599ft 139kts
19-Sep-20 01:14 35.898310 -114.829219 113 7599ft 139kts
19-Sep-20 01:15 35.887057 -114.783493 113 7601ft 140kts
19-Sep-20 01:16 35.875711 -114.737447 113 7600ft 140kts
19-Sep-20 01:17 35.864072 -114.690088 110 7021ft 147kts
19-Sep-20 01:18 35.851495 -114.641561 119 6321ft 148kts
19-Sep-20 01:19 35.829883 -114.598443 125 5633ft 150kts
19-Sep-20 01:20 35.809348 -114.557305 145 5491ft 130kts
19-Sep-20 01:21 35.789561 -114.575852 288 5502ft 116kts
19-Sep-20 01:23 35.818972 -114.592108 340 5508ft 125kts
19-Sep-20 01:24 35.842481 -114.626126 298 5505ft 141kts
19-Sep-20 01:25 35.863019 -114.668295 294 5363ft 146kts
19-Sep-20 01:26 35.882274 -114.709954 300 4726ft 114kts
19-Sep-20 01:27 35.897054 -114.740420 298 4535ft 114kts
19-Sep-20 01:28 35.911723 -114.774102 297 3710ft 90kts
19-Sep-20 01:29 35.923874 -114.801391 302 2981ft 101kts
19-Sep-20 01:30 35.939111 -114.833358 296 2584ft 107kts
19-Sep-20 01:31 35.946151 -114.859536 280 2158ft 47kts
19-Sep-20 01:32 35.948058 -114.861594 354 2158ft 9kts
19-Sep-20 01:33 35.947691 -114.854894 88 2158ft 19kts
19-Sep-20 01:34 35.947648 -114.853907 215 2158ft 15kts
19-Sep-20 01:35 35.947967 -114.853894 5 2158ft 0kts
19-Sep-20 01:36 35.947967 -114.853894 5 2158ft 0kts

Navigation Log

Ident Type
Flight plan parsing failed, navigation log unavailable